createdAt,value
2022-10-16T00:00:33.649Z,16.83
2022-10-16T00:03:00.448Z,16.52
2022-10-16T00:05:27.261Z,18.60
2022-10-16T00:07:53.964Z,17.65
2022-10-16T00:10:20.724Z,14.23
2022-10-16T00:12:47.557Z,20.33
2022-10-16T00:15:14.593Z,20.80
2022-10-16T00:17:41.332Z,16.60
2022-10-16T00:20:08.950Z,15.88
2022-10-16T00:22:35.660Z,18.55
2022-10-16T00:25:02.409Z,18.75
2022-10-16T00:27:28.982Z,17.02
2022-10-16T00:29:55.836Z,21.73
2022-10-16T00:32:22.845Z,21.98
2022-10-16T00:34:49.795Z,34.25
2022-10-16T00:37:16.509Z,24.70
2022-10-16T00:39:43.234Z,17.08
2022-10-16T00:42:17.184Z,20.00
2022-10-16T00:44:56.808Z,19.70
2022-10-16T00:47:26.759Z,18.13
2022-10-16T00:50:00.255Z,18.92
2022-10-16T00:52:27.499Z,18.67
2022-10-16T00:54:55.450Z,18.85
2022-10-16T00:57:23.896Z,18.55
2022-10-16T00:59:51.003Z,17.25
2022-10-16T01:02:18.664Z,18.05
2022-10-16T01:04:53.377Z,18.35
2022-10-16T01:07:27.056Z,17.55
2022-10-16T01:10:02.992Z,16.60
2022-10-16T01:13:12.980Z,18.98
2022-10-16T01:16:17.106Z,15.93
2022-10-16T01:18:55.714Z,17.52
2022-10-16T01:21:30.914Z,16.58
2022-10-16T01:24:06.001Z,19.35
2022-10-16T01:26:46.343Z,19.52
2022-10-16T01:29:27.349Z,17.30
2022-10-16T01:32:00.893Z,21.00
2022-10-16T01:34:36.397Z,22.83
2022-10-16T01:37:13.446Z,23.33
2022-10-16T01:39:42.633Z,21.17
2022-10-16T01:42:12.181Z,17.98
2022-10-16T01:44:40.694Z,17.15
2022-10-16T01:47:11.282Z,20.40
2022-10-16T01:49:41.772Z,26.40
2022-10-16T01:52:13.650Z,19.80
2022-10-16T01:54:44.116Z,19.08
2022-10-16T01:57:12.494Z,20.17
2022-10-16T01:59:45.862Z,21.10
2022-10-16T02:02:14.380Z,21.10
2022-10-16T02:04:47.309Z,20.48
2022-10-16T02:07:15.601Z,19.73
2022-10-16T02:09:42.358Z,18.90
2022-10-16T02:12:34.651Z,18.85
2022-10-16T02:15:01.823Z,20.23
2022-10-16T02:17:28.965Z,20.35
2022-10-16T02:19:57.484Z,20.55
2022-10-16T02:22:37.365Z,20.63
2022-10-16T02:25:10.934Z,18.70
2022-10-16T02:27:56.041Z,17.17
2022-10-16T02:30:30.591Z,17.15
2022-10-16T02:33:00.670Z,17.73
2022-10-16T02:35:28.898Z,18.02
2022-10-16T02:37:57.365Z,17.75
2022-10-16T02:40:25.516Z,17.48
2022-10-16T02:42:54.250Z,18.52
2022-10-16T02:45:21.632Z,17.88
2022-10-16T02:47:48.700Z,16.92
2022-10-16T02:50:15.494Z,18.52
2022-10-16T02:52:42.198Z,14.90
2022-10-16T02:55:09.051Z,17.52
2022-10-16T02:57:37.812Z,19.15
2022-10-16T03:00:08.545Z,16.95
2022-10-16T03:02:35.484Z,14.45
2022-10-16T03:05:02.283Z,34.85
2022-10-16T03:07:29.516Z,20.05
2022-10-16T03:09:56.527Z,16.77
2022-10-16T03:12:25.860Z,15.73
2022-10-16T03:14:52.673Z,16.85
2022-10-16T03:17:19.436Z,15.20
2022-10-16T03:19:46.144Z,15.07
2022-10-16T03:22:12.766Z,15.52
2022-10-16T03:24:39.521Z,15.45
2022-10-16T03:27:06.202Z,16.88
2022-10-16T03:29:33.941Z,16.02
2022-10-16T03:32:01.272Z,16.35
2022-10-16T03:34:27.940Z,15.85
2022-10-16T03:36:54.634Z,14.13
2022-10-16T03:39:21.386Z,18.20
2022-10-16T03:41:48.505Z,15.90
2022-10-16T03:44:15.188Z,16.23
2022-10-16T03:46:41.964Z,16.20
2022-10-16T03:49:09.821Z,17.55
2022-10-16T03:51:37.057Z,19.33
2022-10-16T03:54:03.955Z,18.45
2022-10-16T03:56:30.641Z,15.73
2022-10-16T03:58:57.235Z,17.23
2022-10-16T04:01:24.021Z,17.20
2022-10-16T04:03:50.688Z,17.00
2022-10-16T04:06:17.427Z,16.13
2022-10-16T04:08:44.636Z,17.05
2022-10-16T04:11:11.321Z,16.42
2022-10-16T04:13:38.273Z,16.42
2022-10-16T04:16:05.158Z,17.27
2022-10-16T04:18:31.869Z,16.90
2022-10-16T04:21:03.834Z,17.08
2022-10-16T04:23:30.548Z,16.65
2022-10-16T04:25:57.296Z,17.23
2022-10-16T04:28:26.292Z,17.85
2022-10-16T04:30:53.125Z,15.30
2022-10-16T04:33:19.699Z,15.30
2022-10-16T04:35:46.382Z,17.38
2022-10-16T04:38:13.342Z,14.20
2022-10-16T04:40:39.978Z,15.55
2022-10-16T04:43:06.989Z,14.57
2022-10-16T04:45:33.648Z,15.90
2022-10-16T04:48:01.503Z,15.38
2022-10-16T04:50:28.231Z,15.05
2022-10-16T04:52:54.920Z,15.20
2022-10-16T04:55:21.639Z,13.82
2022-10-16T04:57:48.243Z,16.48
2022-10-16T05:00:15.492Z,16.25
2022-10-16T05:02:42.313Z,15.75
2022-10-16T05:05:09.368Z,15.77
2022-10-16T05:07:36.095Z,16.40
2022-10-16T05:10:03.107Z,15.10
2022-10-16T05:12:30.198Z,21.98
2022-10-16T05:14:59.868Z,19.00
2022-10-16T05:17:27.526Z,15.30
2022-10-16T05:19:54.719Z,14.30
2022-10-16T05:22:21.442Z,16.95
2022-10-16T05:24:48.160Z,16.70
2022-10-16T05:27:20.066Z,16.02
2022-10-16T05:29:48.144Z,15.20
2022-10-16T05:32:16.244Z,15.48
2022-10-16T05:34:43.193Z,15.07
2022-10-16T05:37:10.059Z,15.93
2022-10-16T05:39:37.954Z,19.35
2022-10-16T05:42:05.495Z,20.98
2022-10-16T05:47:04.053Z,16.38
2022-10-16T05:49:30.726Z,18.30
2022-10-16T05:51:57.625Z,16.83
2022-10-16T05:54:24.345Z,18.52
2022-10-16T05:56:50.934Z,17.77
2022-10-16T05:59:17.713Z,17.75
2022-10-16T06:01:44.522Z,18.95
2022-10-16T06:06:42.854Z,19.60
2022-10-16T06:09:10.721Z,19.17
2022-10-16T06:11:37.713Z,19.92
2022-10-16T06:14:07.942Z,20.00
2022-10-16T06:16:36.662Z,21.27
2022-10-16T06:19:07.051Z,20.67
2022-10-16T06:21:34.009Z,19.58
2022-10-16T06:24:00.699Z,49.17
2022-10-16T06:26:29.754Z,68.35
2022-10-16T06:28:58.134Z,84.90
2022-10-16T06:31:28.613Z,97.50
2022-10-16T06:33:56.069Z,97.85
2022-10-16T06:36:23.743Z,98.15
2022-10-16T06:38:50.735Z,76.65
2022-10-16T06:41:21.099Z,72.57
2022-10-16T06:43:48.542Z,57.92
2022-10-16T06:46:17.921Z,46.33
2022-10-16T06:48:44.941Z,41.35
2022-10-16T06:51:14.132Z,38.90
2022-10-16T06:54:01.125Z,33.80
2022-10-16T06:56:30.792Z,29.83
2022-10-16T06:58:57.781Z,28.70
2022-10-16T07:01:25.819Z,31.30
2022-10-16T07:03:53.771Z,28.02
2022-10-16T07:06:21.969Z,32.22
2022-10-16T07:08:49.085Z,29.90
2022-10-16T07:11:18.776Z,28.27
2022-10-16T07:13:50.891Z,29.48
2022-10-16T07:16:26.887Z,29.00
2022-10-16T07:19:00.243Z,77.15
2022-10-16T07:21:30.206Z,73.25
2022-10-16T07:24:02.458Z,81.07
2022-10-16T07:26:31.267Z,97.28
2022-10-16T07:28:58.485Z,102.80
2022-10-16T07:31:25.412Z,100.13
2022-10-16T07:33:53.014Z,111.90
2022-10-16T07:36:21.066Z,108.43
2022-10-16T07:38:48.053Z,122.97
2022-10-16T07:41:17.342Z,79.75
2022-10-16T07:43:52.087Z,68.90
2022-10-16T07:46:20.461Z,38.92
2022-10-16T07:48:48.296Z,36.42
2022-10-16T07:51:17.368Z,49.03
2022-10-16T07:53:44.189Z,116.43
2022-10-16T07:56:11.605Z,144.88
2022-10-16T07:58:38.877Z,21.00
2022-10-16T08:01:08.631Z,35.80
2022-10-16T08:03:35.649Z,20.10
2022-10-16T08:06:03.698Z,20.50
2022-10-16T08:08:30.875Z,22.83
2022-10-16T08:10:57.799Z,21.75
2022-10-16T08:13:27.741Z,23.85
2022-10-16T08:15:55.598Z,65.30
2022-10-16T08:18:24.258Z,37.40
2022-10-16T08:21:00.909Z,43.33
2022-10-16T08:23:28.693Z,65.00
2022-10-16T08:25:56.173Z,58.90
2022-10-16T08:28:23.966Z,82.80
2022-10-16T08:30:50.818Z,62.22
2022-10-16T08:33:17.462Z,76.22
2022-10-16T08:35:44.407Z,56.30
2022-10-16T08:38:11.575Z,53.60
2022-10-16T08:40:38.884Z,43.25
2022-10-16T08:43:36.555Z,30.13
2022-10-16T08:46:27.809Z,19.48
2022-10-16T08:48:58.118Z,15.77
2022-10-16T08:51:32.090Z,11.02
2022-10-16T08:54:02.493Z,12.27
2022-10-16T08:56:29.681Z,11.73
2022-10-16T08:59:01.533Z,10.90
2022-10-16T09:01:42.855Z,11.73
2022-10-16T09:04:36.864Z,12.90
2022-10-16T09:07:20.645Z,14.00
2022-10-16T09:10:26.965Z,13.35
2022-10-16T09:13:12.015Z,14.48
2022-10-16T09:15:50.158Z,13.10
2022-10-16T09:18:20.892Z,12.60
2022-10-16T09:20:57.012Z,14.13
2022-10-16T09:23:27.964Z,13.90
2022-10-16T09:25:57.492Z,12.10
2022-10-16T09:28:24.402Z,12.45
2022-10-16T09:30:51.261Z,11.23
2022-10-16T09:33:21.709Z,11.07
2022-10-16T09:35:54.607Z,12.63
2022-10-16T09:38:27.675Z,12.10
2022-10-16T09:41:02.387Z,15.00
2022-10-16T09:43:36.890Z,13.85
2022-10-16T09:46:05.131Z,13.95
2022-10-16T09:48:45.852Z,15.60
2022-10-16T09:51:25.782Z,15.13
2022-10-16T09:53:57.888Z,14.82
2022-10-16T09:56:43.319Z,16.83
2022-10-16T09:59:18.386Z,13.82
2022-10-16T10:01:49.208Z,15.38
2022-10-16T10:04:16.057Z,14.93
2022-10-16T10:06:49.463Z,13.48
2022-10-16T10:09:24.000Z,14.88
2022-10-16T10:12:04.232Z,15.10
2022-10-16T10:14:47.164Z,19.27
2022-10-16T10:17:24.088Z,18.02
2022-10-16T10:19:53.972Z,16.05
2022-10-16T10:22:40.497Z,17.88
2022-10-16T10:25:12.934Z,18.75
2022-10-16T10:27:51.373Z,17.83
2022-10-16T10:30:20.628Z,19.08
2022-10-16T10:32:56.394Z,21.80
2022-10-16T10:35:29.960Z,18.27
2022-10-16T10:38:10.717Z,21.08
2022-10-16T10:41:15.741Z,18.80
2022-10-16T10:43:46.266Z,17.40
2022-10-16T10:46:35.567Z,18.70
2022-10-16T10:49:18.868Z,22.42
2022-10-16T10:52:22.465Z,24.17
2022-10-16T10:55:10.345Z,20.80
2022-10-16T10:58:05.320Z,23.33
2022-10-16T11:00:39.804Z,23.88
2022-10-16T11:03:36.151Z,22.20
2022-10-16T11:06:08.486Z,23.17
2022-10-16T11:08:49.469Z,218.10
2022-10-16T11:11:38.654Z,423.77
2022-10-16T11:14:11.257Z,574.80
2022-10-16T11:16:43.588Z,537.00
2022-10-16T11:20:01.742Z,552.58
2022-10-16T11:22:35.357Z,552.55
2022-10-16T11:25:19.623Z,530.70
2022-10-16T11:27:53.111Z,514.08
2022-10-16T11:30:26.614Z,521.78
2022-10-16T11:33:05.463Z,257.88
2022-10-16T11:35:47.139Z,344.55
2022-10-16T11:38:39.364Z,455.92
2022-10-16T11:41:18.450Z,404.63
2022-10-16T11:43:58.217Z,541.97
2022-10-16T11:46:26.837Z,507.83
2022-10-16T11:49:15.772Z,563.55
2022-10-16T11:51:50.044Z,503.00
2022-10-16T11:54:31.918Z,501.52
2022-10-16T11:57:08.358Z,567.47
2022-10-16T12:00:12.256Z,468.73
2022-10-16T12:02:55.569Z,526.65
2022-10-16T12:05:31.037Z,494.85
2022-10-16T12:08:09.218Z,511.17
2022-10-16T12:13:32.512Z,481.73
2022-10-16T12:16:25.753Z,473.73
2022-10-16T12:19:14.437Z,503.23
2022-10-16T12:21:42.474Z,470.73
2022-10-16T12:24:23.314Z,461.50
2022-10-16T12:26:53.219Z,422.58
2022-10-16T12:29:31.569Z,525.67
2022-10-16T12:31:58.809Z,537.08
2022-10-16T12:34:41.427Z,510.05
2022-10-16T12:37:22.144Z,445.23
2022-10-16T12:39:50.304Z,422.08
2022-10-16T12:42:25.687Z,474.52
2022-10-16T12:44:53.245Z,459.27
2022-10-16T12:47:44.277Z,461.73
2022-10-16T12:50:32.013Z,431.35
2022-10-16T12:53:00.423Z,525.50
2022-10-16T12:55:28.580Z,447.17
2022-10-16T12:58:34.562Z,451.52
2022-10-16T13:01:22.896Z,443.73
2022-10-16T13:04:03.239Z,453.42
2022-10-16T13:07:17.674Z,467.90
2022-10-16T13:09:56.630Z,466.92
2022-10-16T13:13:05.036Z,500.25
2022-10-16T13:15:36.479Z,510.83
2022-10-16T13:18:15.453Z,509.17
2022-10-16T13:21:22.349Z,518.45
2022-10-16T13:24:24.123Z,482.65
2022-10-16T13:27:01.866Z,531.53
2022-10-16T13:29:35.419Z,552.30
2022-10-16T13:32:08.598Z,560.90
2022-10-16T13:34:47.026Z,548.35
2022-10-16T13:37:22.166Z,486.98
2022-10-16T13:39:49.018Z,501.20
2022-10-16T13:42:27.773Z,534.10
2022-10-16T13:44:56.832Z,556.20
2022-10-16T13:47:29.586Z,576.85
2022-10-16T13:50:07.261Z,547.77
2022-10-16T13:52:42.438Z,624.50
2022-10-16T13:55:18.581Z,555.88
2022-10-16T13:57:52.020Z,554.88
2022-10-16T14:00:31.227Z,572.90
2022-10-16T14:03:15.292Z,567.38
2022-10-16T14:05:51.800Z,574.65
2022-10-16T14:08:18.856Z,615.00
2022-10-16T14:10:50.908Z,642.67
2022-10-16T14:13:35.033Z,630.47
2022-10-16T14:16:07.992Z,631.50
2022-10-16T14:18:36.007Z,655.22
2022-10-16T14:21:08.256Z,663.60
2022-10-16T14:23:40.129Z,673.53
2022-10-16T14:26:10.226Z,681.30
2022-10-16T14:28:38.665Z,657.53
2022-10-16T14:31:26.891Z,641.80
2022-10-16T14:33:53.787Z,648.45
2022-10-16T14:36:22.850Z,671.53
2022-10-16T14:39:20.305Z,698.38
2022-10-16T14:41:50.275Z,700.47
2022-10-16T14:44:19.131Z,702.10
2022-10-16T14:46:47.016Z,677.22
2022-10-16T14:49:13.599Z,717.05
2022-10-16T14:51:43.035Z,767.20
2022-10-16T14:54:11.928Z,778.85
2022-10-16T14:56:59.534Z,843.55
2022-10-16T14:59:34.815Z,907.20
2022-10-16T15:02:10.392Z,760.53
2022-10-16T15:04:37.144Z,751.45
2022-10-16T15:07:03.767Z,595.30
2022-10-16T15:09:30.501Z,557.05
2022-10-16T15:11:57.328Z,417.48
2022-10-16T15:14:26.682Z,332.17
2022-10-16T15:16:53.326Z,302.05
2022-10-16T15:19:20.040Z,255.52
2022-10-16T15:21:47.005Z,240.15
2022-10-16T15:24:17.833Z,213.02
2022-10-16T15:26:47.716Z,207.93
2022-10-16T15:29:14.496Z,173.63
2022-10-16T15:31:43.705Z,74.53
2022-10-16T15:34:12.576Z,79.80
2022-10-16T15:36:40.021Z,74.15
2022-10-16T15:39:12.103Z,105.32
2022-10-16T15:41:38.868Z,124.78
2022-10-16T15:44:05.655Z,150.00
2022-10-16T15:46:34.721Z,145.10
2022-10-16T15:49:01.656Z,115.45
2022-10-16T15:51:30.403Z,153.75
2022-10-16T15:53:58.120Z,151.73
2022-10-16T15:56:26.454Z,244.85
2022-10-16T15:58:54.875Z,248.82
2022-10-16T16:01:24.747Z,266.30
2022-10-16T16:03:55.198Z,236.73
2022-10-16T16:06:24.698Z,213.07
2022-10-16T16:08:52.195Z,174.18
2022-10-16T16:11:20.318Z,148.45
2022-10-16T16:13:47.600Z,139.85
2022-10-16T16:16:17.630Z,137.35
2022-10-16T16:18:45.325Z,136.13
2022-10-16T16:21:13.284Z,117.68
2022-10-16T16:23:39.888Z,123.15
2022-10-16T16:26:11.004Z,164.18
2022-10-16T16:28:38.378Z,106.38
2022-10-16T16:31:05.566Z,106.88
2022-10-16T16:33:32.507Z,102.10
2022-10-16T16:36:01.128Z,108.38
2022-10-16T16:38:28.806Z,126.65
2022-10-16T16:40:56.449Z,118.72
2022-10-16T16:43:28.855Z,107.10
2022-10-16T16:45:55.738Z,105.32
2022-10-16T16:48:23.259Z,104.03
2022-10-16T16:50:53.040Z,157.10
2022-10-16T16:53:19.860Z,143.63
2022-10-16T16:55:46.784Z,232.27
2022-10-16T16:58:13.500Z,147.63
2022-10-16T17:00:56.451Z,115.93
2022-10-16T17:03:26.437Z,116.57
2022-10-16T17:06:00.299Z,116.13
2022-10-16T17:08:28.327Z,327.67
2022-10-16T17:10:56.204Z,236.48
2022-10-16T17:13:24.394Z,330.40
2022-10-16T17:15:51.860Z,161.70
2022-10-16T17:18:18.693Z,130.02
2022-10-16T17:20:45.584Z,186.65
2022-10-16T17:23:13.013Z,132.43
2022-10-16T17:25:40.693Z,93.80
2022-10-16T17:28:08.625Z,130.75
2022-10-16T17:30:35.853Z,93.10
2022-10-16T17:33:02.743Z,116.45
2022-10-16T17:35:29.623Z,95.22
2022-10-16T17:37:56.535Z,94.93
2022-10-16T17:40:23.212Z,129.80
2022-10-16T17:42:49.782Z,214.98
2022-10-16T17:45:16.470Z,200.73
2022-10-16T17:47:43.148Z,242.07
2022-10-16T17:50:13.337Z,203.18
2022-10-16T17:52:42.368Z,163.77
2022-10-16T17:55:09.720Z,126.75
2022-10-16T17:57:36.295Z,138.55
2022-10-16T18:00:03.831Z,198.45
2022-10-16T18:02:30.719Z,193.32
2022-10-16T18:04:57.524Z,99.85
2022-10-16T18:07:26.846Z,125.63
2022-10-16T18:10:10.413Z,264.75
2022-10-16T18:12:39.104Z,285.27
2022-10-16T18:15:06.358Z,213.15
2022-10-16T18:17:37.733Z,377.23
2022-10-16T18:20:07.242Z,300.67
2022-10-16T18:22:38.375Z,365.52
2022-10-16T18:25:06.422Z,281.10
2022-10-16T18:27:34.575Z,372.63
2022-10-16T18:30:01.228Z,346.63
2022-10-16T18:32:28.253Z,379.08
2022-10-16T18:34:55.388Z,425.67
2022-10-16T18:37:24.103Z,443.25
2022-10-16T18:39:50.740Z,375.02
2022-10-16T18:42:21.026Z,392.33
2022-10-16T18:44:49.158Z,349.33
2022-10-16T18:47:19.881Z,356.17
2022-10-16T18:49:49.558Z,368.35
2022-10-16T18:52:16.493Z,377.02
2022-10-16T18:54:43.262Z,480.42
2022-10-16T18:57:09.999Z,367.92
2022-10-16T18:59:36.742Z,210.73
2022-10-16T19:02:03.596Z,220.63
2022-10-16T19:04:30.994Z,363.42
2022-10-16T19:06:57.819Z,391.50
2022-10-16T19:09:25.805Z,360.65
2022-10-16T19:11:53.245Z,391.20
2022-10-16T19:14:21.271Z,316.27
2022-10-16T19:16:48.912Z,402.50
2022-10-16T19:19:18.958Z,362.25
2022-10-16T19:21:47.810Z,453.20
2022-10-16T19:24:15.552Z,451.58
2022-10-16T19:26:42.546Z,455.42
2022-10-16T19:29:10.733Z,469.98
2022-10-16T19:31:37.570Z,381.95
2022-10-16T19:34:06.868Z,330.75
2022-10-16T19:36:38.092Z,454.33
2022-10-16T19:39:12.796Z,325.42
2022-10-16T19:41:39.858Z,243.88
2022-10-16T19:44:08.457Z,221.77
2022-10-16T19:46:38.506Z,173.70
2022-10-16T19:49:07.870Z,162.35
2022-10-16T19:51:35.438Z,151.32
2022-10-16T19:54:12.446Z,283.60
2022-10-16T19:56:39.803Z,250.07
2022-10-16T19:59:11.755Z,156.45
2022-10-16T20:01:39.406Z,140.00
2022-10-16T20:04:06.225Z,205.65
2022-10-16T20:06:33.107Z,300.17
2022-10-16T20:08:59.804Z,246.07
2022-10-16T20:11:29.441Z,200.25
2022-10-16T20:13:56.457Z,305.02
2022-10-16T20:16:23.666Z,379.40
2022-10-16T20:18:51.765Z,259.77
2022-10-16T20:21:20.926Z,255.52
2022-10-16T20:23:49.286Z,190.25
2022-10-16T20:26:16.561Z,136.40
2022-10-16T20:28:44.127Z,155.40
2022-10-16T20:31:18.382Z,177.52
2022-10-16T20:36:13.742Z,258.08
2022-10-16T20:38:41.948Z,251.50
2022-10-16T20:41:10.331Z,175.77
2022-10-16T20:43:41.218Z,169.98
2022-10-16T20:46:10.206Z,173.20
2022-10-16T20:48:41.072Z,205.88
2022-10-16T20:51:31.972Z,318.80
2022-10-16T20:54:01.596Z,285.50
2022-10-16T20:56:30.768Z,224.68
2022-10-16T20:58:58.264Z,162.13
2022-10-16T21:01:26.995Z,245.20
2022-10-16T21:03:59.784Z,307.73
2022-10-16T21:06:26.876Z,306.02
2022-10-16T21:08:54.409Z,323.17
2022-10-16T21:11:24.442Z,439.05
2022-10-16T21:13:56.093Z,369.30
2022-10-16T21:16:22.940Z,385.13
2022-10-16T21:18:50.387Z,422.85
2022-10-16T21:21:28.422Z,488.38
2022-10-16T21:23:57.482Z,436.67
2022-10-16T21:26:28.205Z,310.27
2022-10-16T21:29:07.037Z,349.33
2022-10-16T21:31:34.600Z,408.55
2022-10-16T21:34:01.771Z,465.20
2022-10-16T21:36:33.588Z,574.47
2022-10-16T21:39:14.845Z,611.17
2022-10-16T21:41:43.750Z,628.45
2022-10-16T21:44:11.373Z,615.45
2022-10-16T21:46:40.308Z,638.97
2022-10-16T21:49:10.257Z,606.83
2022-10-16T21:51:40.187Z,591.05
2022-10-16T21:54:10.217Z,603.90
2022-10-16T21:56:36.967Z,636.55
2022-10-16T21:59:04.093Z,621.95
2022-10-16T22:01:31.236Z,626.17
2022-10-16T22:03:58.118Z,573.28
2022-10-16T22:06:27.555Z,541.13
2022-10-16T22:08:57.228Z,529.70
2022-10-16T22:11:39.176Z,545.58
2022-10-16T22:14:12.462Z,508.80
2022-10-16T22:16:39.396Z,545.57
2022-10-16T22:19:09.732Z,561.10
2022-10-16T22:21:38.933Z,558.50
2022-10-16T22:24:06.670Z,570.63
2022-10-16T22:26:34.141Z,590.90
2022-10-16T22:29:00.817Z,604.22
2022-10-16T22:31:27.460Z,538.08
2022-10-16T22:33:59.525Z,568.55
2022-10-16T22:36:26.893Z,591.25
2022-10-16T22:38:54.510Z,590.28
2022-10-16T22:41:21.990Z,593.55
2022-10-16T22:43:49.236Z,560.42
2022-10-16T22:46:18.854Z,573.00
2022-10-16T22:48:46.142Z,593.30
2022-10-16T22:51:17.280Z,571.35
2022-10-16T22:53:45.957Z,589.22
2022-10-16T22:56:13.533Z,592.40
2022-10-16T22:58:40.367Z,534.25
2022-10-16T23:01:18.522Z,567.17
2022-10-16T23:03:45.113Z,561.88
2022-10-16T23:06:11.832Z,546.28
2022-10-16T23:08:38.518Z,562.22
2022-10-16T23:11:07.208Z,587.55
2022-10-16T23:13:40.709Z,561.40
2022-10-16T23:16:07.796Z,580.60
2022-10-16T23:18:34.958Z,557.97
2022-10-16T23:21:06.811Z,550.03
2022-10-16T23:23:37.876Z,549.25
2022-10-16T23:26:13.110Z,556.40
2022-10-16T23:28:40.346Z,528.38
2022-10-16T23:31:08.377Z,536.15
2022-10-16T23:33:36.655Z,553.45
2022-10-16T23:36:08.566Z,589.55
2022-10-16T23:38:35.426Z,584.60
2022-10-16T23:41:02.230Z,554.38
2022-10-16T23:43:29.354Z,560.22
2022-10-16T23:45:56.337Z,565.88
2022-10-16T23:48:25.812Z,567.28
2022-10-16T23:50:52.762Z,576.03
2022-10-16T23:53:19.698Z,559.00
2022-10-16T23:55:46.637Z,550.25
2022-10-16T23:58:13.576Z,575.58
